sensor_id;sensor_type;location;lat;lon;timestamp;temperature;humidity
24162;DHT22;12318;51.262;7.066;2022-08-21T00:01:37;16.60;99.90
24162;DHT22;12318;51.262;7.066;2022-08-21T00:04:07;16.60;99.90
24162;DHT22;12318;51.262;7.066;2022-08-21T00:06:37;16.70;99.90
24162;DHT22;12318;51.262;7.066;2022-08-21T00:09:06;16.60;99.90
24162;DHT22;12318;51.262;7.066;2022-08-21T00:11:32;16.50;99.90
24162;DHT22;12318;51.262;7.066;2022-08-21T00:13:58;16.40;99.90
24162;DHT22;12318;51.262;7.066;2022-08-21T00:16:24;16.20;99.90
24162;DHT22;12318;51.262;7.066;2022-08-21T00:18:50;16.20;99.90
24162;DHT22;12318;51.262;7.066;2022-08-21T00:21:18;16.10;99.90
24162;DHT22;12318;51.262;7.066;2022-08-21T00:23:44;16.10;99.90
24162;DHT22;12318;51.262;7.066;2022-08-21T00:26:10;16.10;99.90
24162;DHT22;12318;51.262;7.066;2022-08-21T00:28:38;16.10;99.90
24162;DHT22;12318;51.262;7.066;2022-08-21T00:31:04;16.00;99.90
24162;DHT22;12318;51.262;7.066;2022-08-21T00:33:30;16.00;99.90
24162;DHT22;12318;51.262;7.066;2022-08-21T00:36:02;16.10;99.90
24162;DHT22;12318;51.262;7.066;2022-08-21T00:38:28;16.00;99.90
24162;DHT22;12318;51.262;7.066;2022-08-21T00:40:57;16.00;99.90
24162;DHT22;12318;51.262;7.066;2022-08-21T00:43:30;16.00;99.90
24162;DHT22;12318;51.262;7.066;2022-08-21T00:45:57;15.90;99.90
24162;DHT22;12318;51.262;7.066;2022-08-21T00:48:26;16.00;99.90
24162;DHT22;12318;51.262;7.066;2022-08-21T00:50:56;15.90;99.90
24162;DHT22;12318;51.262;7.066;2022-08-21T00:53:23;16.00;99.90
24162;DHT22;12318;51.262;7.066;2022-08-21T00:55:50;16.00;99.90
24162;DHT22;12318;51.262;7.066;2022-08-21T00:58:16;16.10;99.90
24162;DHT22;12318;51.262;7.066;2022-08-21T01:00:44;15.90;99.90
24162;DHT22;12318;51.262;7.066;2022-08-21T01:03:13;15.80;99.90
24162;DHT22;12318;51.262;7.066;2022-08-21T01:05:40;15.80;99.90
24162;DHT22;12318;51.262;7.066;2022-08-21T01:08:07;15.80;99.90
24162;DHT22;12318;51.262;7.066;2022-08-21T01:10:34;15.90;99.90
24162;DHT22;12318;51.262;7.066;2022-08-21T01:13:01;16.00;99.90
24162;DHT22;12318;51.262;7.066;2022-08-21T01:15:32;16.00;99.90
24162;DHT22;12318;51.262;7.066;2022-08-21T01:17:59;16.00;99.90
24162;DHT22;12318;51.262;7.066;2022-08-21T01:20:25;16.10;99.90
24162;DHT22;12318;51.262;7.066;2022-08-21T01:22:51;16.00;99.90
24162;DHT22;12318;51.262;7.066;2022-08-21T01:25:18;16.10;99.90
24162;DHT22;12318;51.262;7.066;2022-08-21T01:27:45;16.20;99.90
24162;DHT22;12318;51.262;7.066;2022-08-21T01:30:14;16.20;99.90
24162;DHT22;12318;51.262;7.066;2022-08-21T01:32:42;16.10;99.90
24162;DHT22;12318;51.262;7.066;2022-08-21T01:35:08;15.90;99.90
24162;DHT22;12318;51.262;7.066;2022-08-21T01:37:34;15.90;99.90
24162;DHT22;12318;51.262;7.066;2022-08-21T01:40:00;15.80;99.90
24162;DHT22;12318;51.262;7.066;2022-08-21T01:42:26;15.70;99.90
24162;DHT22;12318;51.262;7.066;2022-08-21T01:44:52;15.70;99.90
24162;DHT22;12318;51.262;7.066;2022-08-21T01:47:18;15.80;99.90
24162;DHT22;12318;51.262;7.066;2022-08-21T01:49:44;15.90;99.90
24162;DHT22;12318;51.262;7.066;2022-08-21T01:52:11;15.90;99.90
24162;DHT22;12318;51.262;7.066;2022-08-21T01:54:38;15.90;99.90
24162;DHT22;12318;51.262;7.066;2022-08-21T01:57:04;15.90;99.90
24162;DHT22;12318;51.262;7.066;2022-08-21T01:59:30;15.80;99.90
24162;DHT22;12318;51.262;7.066;2022-08-21T02:01:56;15.70;99.90
24162;DHT22;12318;51.262;7.066;2022-08-21T02:04:23;15.70;99.90
24162;DHT22;12318;51.262;7.066;2022-08-21T02:06:49;15.70;99.90
24162;DHT22;12318;51.262;7.066;2022-08-21T02:09:15;15.80;99.90
24162;DHT22;12318;51.262;7.066;2022-08-21T02:11:41;15.80;99.90
24162;DHT22;12318;51.262;7.066;2022-08-21T02:14:08;15.60;99.90
24162;DHT22;12318;51.262;7.066;2022-08-21T02:16:34;15.50;99.90
24162;DHT22;12318;51.262;7.066;2022-08-21T02:19:00;15.30;99.90
24162;DHT22;12318;51.262;7.066;2022-08-21T02:21:26;15.20;99.90
24162;DHT22;12318;51.262;7.066;2022-08-21T02:23:52;15.20;99.90
24162;DHT22;12318;51.262;7.066;2022-08-21T02:26:19;15.20;99.90
24162;DHT22;12318;51.262;7.066;2022-08-21T02:28:44;15.10;99.90
24162;DHT22;12318;51.262;7.066;2022-08-21T02:31:10;15.10;99.90
24162;DHT22;12318;51.262;7.066;2022-08-21T02:33:36;15.10;99.90
24162;DHT22;12318;51.262;7.066;2022-08-21T02:36:03;15.00;99.90
24162;DHT22;12318;51.262;7.066;2022-08-21T02:38:31;15.00;99.90
24162;DHT22;12318;51.262;7.066;2022-08-21T02:40:59;15.00;99.90
24162;DHT22;12318;51.262;7.066;2022-08-21T02:43:26;14.90;99.90
24162;DHT22;12318;51.262;7.066;2022-08-21T02:45:55;14.90;99.90
24162;DHT22;12318;51.262;7.066;2022-08-21T02:48:26;14.90;99.90
24162;DHT22;12318;51.262;7.066;2022-08-21T02:50:55;14.70;99.90
24162;DHT22;12318;51.262;7.066;2022-08-21T02:53:22;14.60;99.90
24162;DHT22;12318;51.262;7.066;2022-08-21T02:55:49;14.60;99.90
24162;DHT22;12318;51.262;7.066;2022-08-21T02:58:23;14.60;99.90
24162;DHT22;12318;51.262;7.066;2022-08-21T03:00:49;14.60;99.90
24162;DHT22;12318;51.262;7.066;2022-08-21T03:03:15;14.70;99.90
24162;DHT22;12318;51.262;7.066;2022-08-21T03:05:43;14.70;99.90
24162;DHT22;12318;51.262;7.066;2022-08-21T03:08:11;14.70;99.90
24162;DHT22;12318;51.262;7.066;2022-08-21T03:10:38;14.70;99.90
24162;DHT22;12318;51.262;7.066;2022-08-21T03:13:05;14.70;99.90
24162;DHT22;12318;51.262;7.066;2022-08-21T03:15:32;14.70;99.90
24162;DHT22;12318;51.262;7.066;2022-08-21T03:17:58;14.70;99.90
24162;DHT22;12318;51.262;7.066;2022-08-21T03:20:27;14.60;99.90
24162;DHT22;12318;51.262;7.066;2022-08-21T03:22:54;14.60;99.90
24162;DHT22;12318;51.262;7.066;2022-08-21T03:25:23;14.60;99.90
24162;DHT22;12318;51.262;7.066;2022-08-21T03:27:49;14.50;99.90
24162;DHT22;12318;51.262;7.066;2022-08-21T03:30:16;14.30;99.90
24162;DHT22;12318;51.262;7.066;2022-08-21T03:32:41;14.30;99.90
24162;DHT22;12318;51.262;7.066;2022-08-21T03:35:08;14.30;99.90
24162;DHT22;12318;51.262;7.066;2022-08-21T03:37:34;14.20;99.90
24162;DHT22;12318;51.262;7.066;2022-08-21T03:40:00;14.20;99.90
24162;DHT22;12318;51.262;7.066;2022-08-21T03:42:26;14.10;99.90
24162;DHT22;12318;51.262;7.066;2022-08-21T03:44:52;14.10;99.90
24162;DHT22;12318;51.262;7.066;2022-08-21T03:47:18;14.10;99.90
24162;DHT22;12318;51.262;7.066;2022-08-21T03:49:43;14.10;99.90
24162;DHT22;12318;51.262;7.066;2022-08-21T03:52:09;14.00;99.90
24162;DHT22;12318;51.262;7.066;2022-08-21T03:54:35;13.90;99.90
24162;DHT22;12318;51.262;7.066;2022-08-21T03:57:00;14.00;99.90
24162;DHT22;12318;51.262;7.066;2022-08-21T03:59:26;14.00;99.90
24162;DHT22;12318;51.262;7.066;2022-08-21T04:01:54;14.00;99.90
24162;DHT22;12318;51.262;7.066;2022-08-21T04:04:20;14.00;99.90
24162;DHT22;12318;51.262;7.066;2022-08-21T04:06:46;13.80;99.90
24162;DHT22;12318;51.262;7.066;2022-08-21T04:09:12;13.80;99.90
24162;DHT22;12318;51.262;7.066;2022-08-21T04:11:38;13.80;99.90
24162;DHT22;12318;51.262;7.066;2022-08-21T04:14:03;13.80;99.90
24162;DHT22;12318;51.262;7.066;2022-08-21T04:16:30;13.80;99.90
24162;DHT22;12318;51.262;7.066;2022-08-21T04:18:56;13.90;99.90
24162;DHT22;12318;51.262;7.066;2022-08-21T04:21:22;13.90;99.90
24162;DHT22;12318;51.262;7.066;2022-08-21T04:23:48;13.80;99.90
24162;DHT22;12318;51.262;7.066;2022-08-21T04:26:14;13.80;99.90
24162;DHT22;12318;51.262;7.066;2022-08-21T04:28:39;13.80;99.90
24162;DHT22;12318;51.262;7.066;2022-08-21T04:31:05;13.80;99.90
24162;DHT22;12318;51.262;7.066;2022-08-21T04:33:31;13.80;99.90
24162;DHT22;12318;51.262;7.066;2022-08-21T04:35:56;13.70;99.90
24162;DHT22;12318;51.262;7.066;2022-08-21T04:38:22;13.80;99.90
24162;DHT22;12318;51.262;7.066;2022-08-21T04:40:49;13.70;99.90
24162;DHT22;12318;51.262;7.066;2022-08-21T04:43:15;13.80;99.90
24162;DHT22;12318;51.262;7.066;2022-08-21T04:45:44;13.80;99.90
24162;DHT22;12318;51.262;7.066;2022-08-21T04:48:12;13.90;99.90
24162;DHT22;12318;51.262;7.066;2022-08-21T04:53:15;14.10;99.90
24162;DHT22;12318;51.262;7.066;2022-08-21T04:55:43;14.10;99.90
24162;DHT22;12318;51.262;7.066;2022-08-21T04:58:11;14.00;99.90
24162;DHT22;12318;51.262;7.066;2022-08-21T05:00:39;14.00;99.90
24162;DHT22;12318;51.262;7.066;2022-08-21T05:03:06;14.00;99.90
24162;DHT22;12318;51.262;7.066;2022-08-21T05:05:33;14.10;99.90
24162;DHT22;12318;51.262;7.066;2022-08-21T05:08:01;14.10;99.90
24162;DHT22;12318;51.262;7.066;2022-08-21T05:10:28;13.90;99.90
24162;DHT22;12318;51.262;7.066;2022-08-21T05:12:54;13.90;99.90
24162;DHT22;12318;51.262;7.066;2022-08-21T05:15:21;14.00;99.90
24162;DHT22;12318;51.262;7.066;2022-08-21T05:17:46;14.10;99.90
24162;DHT22;12318;51.262;7.066;2022-08-21T05:20:13;14.30;99.90
24162;DHT22;12318;51.262;7.066;2022-08-21T05:22:39;14.30;99.90
24162;DHT22;12318;51.262;7.066;2022-08-21T05:25:07;14.50;99.90
24162;DHT22;12318;51.262;7.066;2022-08-21T05:27:33;14.50;99.90
24162;DHT22;12318;51.262;7.066;2022-08-21T05:29:59;14.60;99.90
24162;DHT22;12318;51.262;7.066;2022-08-21T05:32:25;14.70;99.90
24162;DHT22;12318;51.262;7.066;2022-08-21T05:34:54;14.70;99.90
24162;DHT22;12318;51.262;7.066;2022-08-21T05:37:20;14.80;99.90
24162;DHT22;12318;51.262;7.066;2022-08-21T05:39:46;14.90;99.90
24162;DHT22;12318;51.262;7.066;2022-08-21T05:42:12;15.00;99.90
24162;DHT22;12318;51.262;7.066;2022-08-21T05:44:38;15.00;99.90
24162;DHT22;12318;51.262;7.066;2022-08-21T05:47:06;15.10;99.90
24162;DHT22;12318;51.262;7.066;2022-08-21T05:49:32;15.20;99.90
24162;DHT22;12318;51.262;7.066;2022-08-21T05:51:58;15.20;99.90
24162;DHT22;12318;51.262;7.066;2022-08-21T05:54:23;15.40;99.90
24162;DHT22;12318;51.262;7.066;2022-08-21T05:56:49;15.40;99.90
24162;DHT22;12318;51.262;7.066;2022-08-21T05:59:15;15.50;99.90
24162;DHT22;12318;51.262;7.066;2022-08-21T06:01:41;15.60;99.90
24162;DHT22;12318;51.262;7.066;2022-08-21T06:04:07;15.60;99.90
24162;DHT22;12318;51.262;7.066;2022-08-21T06:06:33;15.70;99.90
24162;DHT22;12318;51.262;7.066;2022-08-21T06:08:59;15.80;99.90
24162;DHT22;12318;51.262;7.066;2022-08-21T06:11:25;15.90;99.90
24162;DHT22;12318;51.262;7.066;2022-08-21T06:13:50;16.00;99.90
24162;DHT22;12318;51.262;7.066;2022-08-21T06:16:16;16.10;99.90
24162;DHT22;12318;51.262;7.066;2022-08-21T06:18:43;16.10;99.90
24162;DHT22;12318;51.262;7.066;2022-08-21T06:21:09;16.30;99.90
24162;DHT22;12318;51.262;7.066;2022-08-21T06:23:37;16.40;99.90
24162;DHT22;12318;51.262;7.066;2022-08-21T06:26:04;16.50;99.90
24162;DHT22;12318;51.262;7.066;2022-08-21T06:28:31;16.50;99.90
24162;DHT22;12318;51.262;7.066;2022-08-21T06:30:57;16.60;99.90
24162;DHT22;12318;51.262;7.066;2022-08-21T06:33:22;16.70;99.90
24162;DHT22;12318;51.262;7.066;2022-08-21T06:35:49;16.70;99.90
24162;DHT22;12318;51.262;7.066;2022-08-21T06:38:15;16.90;99.90
24162;DHT22;12318;51.262;7.066;2022-08-21T06:40:41;16.90;99.90
24162;DHT22;12318;51.262;7.066;2022-08-21T06:43:15;17.00;99.90
24162;DHT22;12318;51.262;7.066;2022-08-21T06:45:41;17.10;99.90
24162;DHT22;12318;51.262;7.066;2022-08-21T06:48:07;17.30;99.90
24162;DHT22;12318;51.262;7.066;2022-08-21T06:50:33;17.50;99.90
24162;DHT22;12318;51.262;7.066;2022-08-21T06:53:20;17.80;99.90
24162;DHT22;12318;51.262;7.066;2022-08-21T06:55:47;17.70;99.90
24162;DHT22;12318;51.262;7.066;2022-08-21T06:58:14;17.70;99.90
24162;DHT22;12318;51.262;7.066;2022-08-21T07:00:42;17.60;99.90
24162;DHT22;12318;51.262;7.066;2022-08-21T07:03:27;17.80;99.90
24162;DHT22;12318;51.262;7.066;2022-08-21T07:05:53;17.70;99.90
24162;DHT22;12318;51.262;7.066;2022-08-21T07:08:20;17.80;99.90
24162;DHT22;12318;51.262;7.066;2022-08-21T07:10:46;17.90;99.90
24162;DHT22;12318;51.262;7.066;2022-08-21T07:13:12;18.10;99.90
24162;DHT22;12318;51.262;7.066;2022-08-21T07:15:38;18.20;99.90
24162;DHT22;12318;51.262;7.066;2022-08-21T07:18:04;18.20;99.90
24162;DHT22;12318;51.262;7.066;2022-08-21T07:20:31;17.90;99.90
24162;DHT22;12318;51.262;7.066;2022-08-21T07:23:03;18.00;99.90
24162;DHT22;12318;51.262;7.066;2022-08-21T07:25:30;18.20;99.90
24162;DHT22;12318;51.262;7.066;2022-08-21T07:27:56;18.50;99.90
24162;DHT22;12318;51.262;7.066;2022-08-21T07:30:22;18.60;99.90
24162;DHT22;12318;51.262;7.066;2022-08-21T07:32:48;18.60;99.90
24162;DHT22;12318;51.262;7.066;2022-08-21T07:35:15;18.80;99.90
24162;DHT22;12318;51.262;7.066;2022-08-21T07:37:41;18.80;99.90
24162;DHT22;12318;51.262;7.066;2022-08-21T07:40:07;18.90;99.90
24162;DHT22;12318;51.262;7.066;2022-08-21T07:42:33;18.90;99.90
24162;DHT22;12318;51.262;7.066;2022-08-21T07:44:59;19.00;99.90
24162;DHT22;12318;51.262;7.066;2022-08-21T07:47:24;19.20;99.90
24162;DHT22;12318;51.262;7.066;2022-08-21T07:49:50;19.10;99.90
24162;DHT22;12318;51.262;7.066;2022-08-21T07:52:16;19.00;99.90
24162;DHT22;12318;51.262;7.066;2022-08-21T07:54:42;19.00;99.90
24162;DHT22;12318;51.262;7.066;2022-08-21T07:57:08;19.20;99.90
24162;DHT22;12318;51.262;7.066;2022-08-21T07:59:33;19.20;99.90
24162;DHT22;12318;51.262;7.066;2022-08-21T08:01:59;19.20;99.90
24162;DHT22;12318;51.262;7.066;2022-08-21T08:04:25;19.30;99.90
24162;DHT22;12318;51.262;7.066;2022-08-21T08:06:51;19.40;99.90
24162;DHT22;12318;51.262;7.066;2022-08-21T08:09:17;19.60;99.90
24162;DHT22;12318;51.262;7.066;2022-08-21T08:11:42;19.40;99.90
24162;DHT22;12318;51.262;7.066;2022-08-21T08:14:09;19.70;99.90
24162;DHT22;12318;51.262;7.066;2022-08-21T08:16:35;19.70;99.90
24162;DHT22;12318;51.262;7.066;2022-08-21T08:19:01;19.60;99.90
24162;DHT22;12318;51.262;7.066;2022-08-21T08:21:29;19.70;99.90
24162;DHT22;12318;51.262;7.066;2022-08-21T08:23:55;19.70;99.90
24162;DHT22;12318;51.262;7.066;2022-08-21T08:26:21;19.60;99.90
24162;DHT22;12318;51.262;7.066;2022-08-21T08:28:47;19.70;99.90
24162;DHT22;12318;51.262;7.066;2022-08-21T08:31:13;19.90;99.90
24162;DHT22;12318;51.262;7.066;2022-08-21T08:33:39;20.00;99.90
24162;DHT22;12318;51.262;7.066;2022-08-21T08:36:05;20.00;99.90
24162;DHT22;12318;51.262;7.066;2022-08-21T08:38:37;19.80;99.90
24162;DHT22;12318;51.262;7.066;2022-08-21T08:41:22;20.10;99.90
24162;DHT22;12318;51.262;7.066;2022-08-21T08:43:57;20.40;99.90
24162;DHT22;12318;51.262;7.066;2022-08-21T08:46:41;20.40;99.90
24162;DHT22;12318;51.262;7.066;2022-08-21T08:49:27;20.60;99.90
24162;DHT22;12318;51.262;7.066;2022-08-21T08:52:05;20.70;99.90
24162;DHT22;12318;51.262;7.066;2022-08-21T08:54:33;20.80;99.90
24162;DHT22;12318;51.262;7.066;2022-08-21T08:57:02;20.70;99.90
24162;DHT22;12318;51.262;7.066;2022-08-21T08:59:50;20.70;99.90
24162;DHT22;12318;51.262;7.066;2022-08-21T09:02:17;20.80;99.90
24162;DHT22;12318;51.262;7.066;2022-08-21T09:04:46;20.80;99.90
24162;DHT22;12318;51.262;7.066;2022-08-21T09:10:21;21.00;99.90
24162;DHT22;12318;51.262;7.066;2022-08-21T09:15:37;21.30;99.90
24162;DHT22;12318;51.262;7.066;2022-08-21T09:23:57;21.70;99.90
24162;DHT22;12318;51.262;7.066;2022-08-21T09:26:29;21.80;99.90
24162;DHT22;12318;51.262;7.066;2022-08-21T09:28:59;21.70;99.90
24162;DHT22;12318;51.262;7.066;2022-08-21T09:31:33;21.70;99.90
24162;DHT22;12318;51.262;7.066;2022-08-21T09:34:07;21.60;99.90
24162;DHT22;12318;51.262;7.066;2022-08-21T09:36:43;21.40;99.90
24162;DHT22;12318;51.262;7.066;2022-08-21T09:39:11;21.40;99.90
24162;DHT22;12318;51.262;7.066;2022-08-21T09:41:38;21.50;99.90
24162;DHT22;12318;51.262;7.066;2022-08-21T09:44:06;21.70;99.90
24162;DHT22;12318;51.262;7.066;2022-08-21T09:46:33;22.00;99.90
24162;DHT22;12318;51.262;7.066;2022-08-21T09:49:01;21.90;99.90
24162;DHT22;12318;51.262;7.066;2022-08-21T09:51:30;22.10;99.90
24162;DHT22;12318;51.262;7.066;2022-08-21T09:56:37;22.10;99.90
24162;DHT22;12318;51.262;7.066;2022-08-21T09:59:31;22.30;99.90
24162;DHT22;12318;51.262;7.066;2022-08-21T10:01:59;22.40;99.90
24162;DHT22;12318;51.262;7.066;2022-08-21T10:04:35;22.50;99.90
24162;DHT22;12318;51.262;7.066;2022-08-21T10:07:12;22.90;99.90
24162;DHT22;12318;51.262;7.066;2022-08-21T10:09:39;22.50;99.90
24162;DHT22;12318;51.262;7.066;2022-08-21T10:17:25;22.70;99.90
24162;DHT22;12318;51.262;7.066;2022-08-21T10:20:09;23.10;99.90
24162;DHT22;12318;51.262;7.066;2022-08-21T10:23:02;23.00;99.90
24162;DHT22;12318;51.262;7.066;2022-08-21T10:25:31;23.20;99.90
24162;DHT22;12318;51.262;7.066;2022-08-21T10:28:21;23.00;99.90
24162;DHT22;12318;51.262;7.066;2022-08-21T10:33:42;23.00;99.90
24162;DHT22;12318;51.262;7.066;2022-08-21T10:38:58;22.30;99.90
24162;DHT22;12318;51.262;7.066;2022-08-21T10:44:54;22.60;99.90
24162;DHT22;12318;51.262;7.066;2022-08-21T10:47:46;22.40;99.90
24162;DHT22;12318;51.262;7.066;2022-08-21T10:50:36;22.60;99.90
24162;DHT22;12318;51.262;7.066;2022-08-21T11:01:42;23.10;99.90
24162;DHT22;12318;51.262;7.066;2022-08-21T11:04:28;23.50;99.90
24162;DHT22;12318;51.262;7.066;2022-08-21T11:07:51;23.80;99.90
24162;DHT22;12318;51.262;7.066;2022-08-21T11:09:58;23.80;99.90
24162;DHT22;12318;51.262;7.066;2022-08-21T11:15:07;23.40;99.90
24162;DHT22;12318;51.262;7.066;2022-08-21T11:17:58;23.30;99.90
24162;DHT22;12318;51.262;7.066;2022-08-21T11:20:42;23.50;99.90
24162;DHT22;12318;51.262;7.066;2022-08-21T11:23:41;23.30;99.90
24162;DHT22;12318;51.262;7.066;2022-08-21T11:26:15;23.40;99.90
24162;DHT22;12318;51.262;7.066;2022-08-21T11:28:52;23.20;99.90
24162;DHT22;12318;51.262;7.066;2022-08-21T11:31:26;23.20;99.90
24162;DHT22;12318;51.262;7.066;2022-08-21T11:34:04;23.10;99.90
24162;DHT22;12318;51.262;7.066;2022-08-21T11:36:51;23.30;99.90
24162;DHT22;12318;51.262;7.066;2022-08-21T11:39:38;23.30;99.90
24162;DHT22;12318;51.262;7.066;2022-08-21T11:50:27;23.90;99.90
24162;DHT22;12318;51.262;7.066;2022-08-21T11:53:08;24.00;99.90
24162;DHT22;12318;51.262;7.066;2022-08-21T11:55:36;24.20;99.90
24162;DHT22;12318;51.262;7.066;2022-08-21T11:58:22;24.30;97.60
24162;DHT22;12318;51.262;7.066;2022-08-21T12:01:17;24.00;97.50
24162;DHT22;12318;51.262;7.066;2022-08-21T12:03:58;24.00;99.60
24162;DHT22;12318;51.262;7.066;2022-08-21T12:06:37;24.10;98.80
24162;DHT22;12318;51.262;7.066;2022-08-21T12:09:09;24.20;97.40
24162;DHT22;12318;51.262;7.066;2022-08-21T12:11:49;24.20;97.30
24162;DHT22;12318;51.262;7.066;2022-08-21T12:14:17;24.20;97.80
24162;DHT22;12318;51.262;7.066;2022-08-21T12:16:45;24.40;97.00
24162;DHT22;12318;51.262;7.066;2022-08-21T12:19:28;24.10;97.70
24162;DHT22;12318;51.262;7.066;2022-08-21T12:30:05;24.00;97.70
24162;DHT22;12318;51.262;7.066;2022-08-21T12:35:15;24.00;98.50
24162;DHT22;12318;51.262;7.066;2022-08-21T12:37:43;23.70;98.70
24162;DHT22;12318;51.262;7.066;2022-08-21T12:40:23;23.70;99.90
24162;DHT22;12318;51.262;7.066;2022-08-21T12:42:53;23.50;99.10
24162;DHT22;12318;51.262;7.066;2022-08-21T12:45:32;23.70;98.80
24162;DHT22;12318;51.262;7.066;2022-08-21T12:48:00;24.00;97.70
24162;DHT22;12318;51.262;7.066;2022-08-21T12:50:44;24.10;98.50
24162;DHT22;12318;51.262;7.066;2022-08-21T12:53:21;24.40;98.20
24162;DHT22;12318;51.262;7.066;2022-08-21T12:55:49;24.20;97.70
24162;DHT22;12318;51.262;7.066;2022-08-21T12:58:24;24.20;97.40
24162;DHT22;12318;51.262;7.066;2022-08-21T13:01:26;24.00;97.40
24162;DHT22;12318;51.262;7.066;2022-08-21T13:03:44;24.10;97.30
24162;DHT22;12318;51.262;7.066;2022-08-21T13:06:15;24.00;98.30
24162;DHT22;12318;51.262;7.066;2022-08-21T13:08:41;23.90;97.90
24162;DHT22;12318;51.262;7.066;2022-08-21T13:11:10;24.10;97.80
24162;DHT22;12318;51.262;7.066;2022-08-21T13:13:38;24.00;97.30
24162;DHT22;12318;51.262;7.066;2022-08-21T13:16:06;24.00;97.10
24162;DHT22;12318;51.262;7.066;2022-08-21T13:18:35;24.00;98.10
24162;DHT22;12318;51.262;7.066;2022-08-21T13:21:13;24.20;97.80
24162;DHT22;12318;51.262;7.066;2022-08-21T13:23:40;24.40;98.20
24162;DHT22;12318;51.262;7.066;2022-08-21T13:26:20;24.50;97.50
24162;DHT22;12318;51.262;7.066;2022-08-21T13:28:46;24.40;96.20
24162;DHT22;12318;51.262;7.066;2022-08-21T13:31:22;24.50;95.80
24162;DHT22;12318;51.262;7.066;2022-08-21T13:33:50;24.70;95.60
24162;DHT22;12318;51.262;7.066;2022-08-21T13:36:29;24.30;96.50
24162;DHT22;12318;51.262;7.066;2022-08-21T13:38:55;24.10;95.40
24162;DHT22;12318;51.262;7.066;2022-08-21T13:41:25;24.20;94.90
24162;DHT22;12318;51.262;7.066;2022-08-21T13:44:02;24.40;95.80
24162;DHT22;12318;51.262;7.066;2022-08-21T13:46:31;24.50;95.40
24162;DHT22;12318;51.262;7.066;2022-08-21T13:49:02;24.60;94.80
24162;DHT22;12318;51.262;7.066;2022-08-21T13:51:29;24.50;94.60
24162;DHT22;12318;51.262;7.066;2022-08-21T13:53:56;24.50;95.40
24162;DHT22;12318;51.262;7.066;2022-08-21T13:56:23;24.30;94.90
24162;DHT22;12318;51.262;7.066;2022-08-21T13:58:51;24.50;96.40
24162;DHT22;12318;51.262;7.066;2022-08-21T14:03:55;24.70;95.50
24162;DHT22;12318;51.262;7.066;2022-08-21T14:06:26;24.90;96.50
24162;DHT22;12318;51.262;7.066;2022-08-21T14:09:00;24.80;93.90
24162;DHT22;12318;51.262;7.066;2022-08-21T14:11:32;24.60;94.90
24162;DHT22;12318;51.262;7.066;2022-08-21T14:13:59;24.60;96.40
24162;DHT22;12318;51.262;7.066;2022-08-21T14:17:13;24.80;96.00
24162;DHT22;12318;51.262;7.066;2022-08-21T14:19:24;24.90;94.90
24162;DHT22;12318;51.262;7.066;2022-08-21T14:21:50;24.80;93.80
24162;DHT22;12318;51.262;7.066;2022-08-21T14:24:31;24.70;94.40
24162;DHT22;12318;51.262;7.066;2022-08-21T14:27:03;24.70;94.60
24162;DHT22;12318;51.262;7.066;2022-08-21T14:29:35;25.10;94.40
24162;DHT22;12318;51.262;7.066;2022-08-21T14:32:20;25.10;95.00
24162;DHT22;12318;51.262;7.066;2022-08-21T14:34:46;25.20;94.30
24162;DHT22;12318;51.262;7.066;2022-08-21T14:37:12;25.30;94.70
24162;DHT22;12318;51.262;7.066;2022-08-21T14:39:38;25.00;93.50
24162;DHT22;12318;51.262;7.066;2022-08-21T14:42:04;24.90;93.90
24162;DHT22;12318;51.262;7.066;2022-08-21T14:44:29;25.00;93.90
24162;DHT22;12318;51.262;7.066;2022-08-21T14:46:58;25.10;93.80
24162;DHT22;12318;51.262;7.066;2022-08-21T14:49:26;25.20;94.20
24162;DHT22;12318;51.262;7.066;2022-08-21T14:51:51;25.20;93.90
24162;DHT22;12318;51.262;7.066;2022-08-21T14:54:23;25.20;94.20
24162;DHT22;12318;51.262;7.066;2022-08-21T14:56:49;25.00;93.40
24162;DHT22;12318;51.262;7.066;2022-08-21T14:59:16;24.90;93.20
24162;DHT22;12318;51.262;7.066;2022-08-21T15:01:42;24.90;93.30
24162;DHT22;12318;51.262;7.066;2022-08-21T15:04:08;25.00;94.20
24162;DHT22;12318;51.262;7.066;2022-08-21T15:06:33;25.10;95.00
24162;DHT22;12318;51.262;7.066;2022-08-21T15:08:59;25.10;93.50
24162;DHT22;12318;51.262;7.066;2022-08-21T15:11:27;24.80;93.00
24162;DHT22;12318;51.262;7.066;2022-08-21T15:13:56;24.90;93.80
24162;DHT22;12318;51.262;7.066;2022-08-21T15:16:23;24.90;93.80
24162;DHT22;12318;51.262;7.066;2022-08-21T15:18:48;24.90;95.10
24162;DHT22;12318;51.262;7.066;2022-08-21T15:21:14;25.00;95.60
24162;DHT22;12318;51.262;7.066;2022-08-21T15:23:40;24.70;93.60
24162;DHT22;12318;51.262;7.066;2022-08-21T15:26:06;24.90;93.10
24162;DHT22;12318;51.262;7.066;2022-08-21T15:28:33;24.90;94.10
24162;DHT22;12318;51.262;7.066;2022-08-21T15:31:00;24.90;93.60
24162;DHT22;12318;51.262;7.066;2022-08-21T15:33:26;24.90;93.10
24162;DHT22;12318;51.262;7.066;2022-08-21T15:35:52;25.00;92.50
24162;DHT22;12318;51.262;7.066;2022-08-21T15:38:18;25.20;91.80
24162;DHT22;12318;51.262;7.066;2022-08-21T15:40:44;25.30;92.10
24162;DHT22;12318;51.262;7.066;2022-08-21T15:43:23;25.40;91.40
24162;DHT22;12318;51.262;7.066;2022-08-21T15:45:50;25.60;91.70
24162;DHT22;12318;51.262;7.066;2022-08-21T15:48:16;25.70;92.10
24162;DHT22;12318;51.262;7.066;2022-08-21T15:50:42;25.60;91.60
24162;DHT22;12318;51.262;7.066;2022-08-21T15:53:07;25.80;92.40
24162;DHT22;12318;51.262;7.066;2022-08-21T15:55:33;25.70;91.70
24162;DHT22;12318;51.262;7.066;2022-08-21T15:57:59;25.90;91.60
24162;DHT22;12318;51.262;7.066;2022-08-21T16:00:25;26.20;91.60
24162;DHT22;12318;51.262;7.066;2022-08-21T16:02:57;26.00;90.40
24162;DHT22;12318;51.262;7.066;2022-08-21T16:05:23;25.90;91.30
24162;DHT22;12318;51.262;7.066;2022-08-21T16:07:49;25.80;90.60
24162;DHT22;12318;51.262;7.066;2022-08-21T16:10:18;25.50;91.30
24162;DHT22;12318;51.262;7.066;2022-08-21T16:12:47;25.60;91.50
24162;DHT22;12318;51.262;7.066;2022-08-21T16:15:16;26.20;90.30
24162;DHT22;12318;51.262;7.066;2022-08-21T16:17:44;26.60;89.20
24162;DHT22;12318;51.262;7.066;2022-08-21T16:20:14;26.50;90.00
24162;DHT22;12318;51.262;7.066;2022-08-21T16:22:40;26.30;89.90
24162;DHT22;12318;51.262;7.066;2022-08-21T16:25:06;26.10;86.80
24162;DHT22;12318;51.262;7.066;2022-08-21T16:27:33;25.90;88.10
24162;DHT22;12318;51.262;7.066;2022-08-21T16:30:00;25.50;90.50
24162;DHT22;12318;51.262;7.066;2022-08-21T16:32:25;25.80;89.20
24162;DHT22;12318;51.262;7.066;2022-08-21T16:34:51;25.80;90.70
24162;DHT22;12318;51.262;7.066;2022-08-21T16:37:17;25.60;90.80
24162;DHT22;12318;51.262;7.066;2022-08-21T16:39:43;25.30;90.90
24162;DHT22;12318;51.262;7.066;2022-08-21T16:42:12;24.90;92.20
24162;DHT22;12318;51.262;7.066;2022-08-21T16:44:41;24.60;92.40
24162;DHT22;12318;51.262;7.066;2022-08-21T16:47:07;24.50;92.70